createdAt,value
2023-01-26T00:02:11.662Z,26.10
2023-01-26T00:04:39.235Z,26.00
2023-01-26T00:07:06.631Z,29.90
2023-01-26T00:09:34.081Z,39.80
2023-01-26T00:12:01.649Z,40.30
2023-01-26T00:14:49.374Z,40.30
2023-01-26T00:17:25.591Z,40.50
2023-01-26T00:19:54.940Z,38.80
2023-01-26T00:22:22.444Z,34.50
2023-01-26T00:24:50.162Z,32.70
2023-01-26T00:27:17.976Z,32.90
2023-01-26T00:29:45.274Z,35.40
2023-01-26T00:32:16.112Z,37.60
2023-01-26T00:34:44.558Z,40.80
2023-01-26T00:37:12.150Z,44.00
2023-01-26T00:39:39.709Z,44.90
2023-01-26T00:42:09.348Z,41.10
2023-01-26T00:44:41.475Z,38.60
2023-01-26T00:47:10.655Z,33.20
2023-01-26T00:49:37.982Z,29.00
2023-01-26T00:52:05.775Z,26.80
2023-01-26T00:54:33.551Z,29.50
2023-01-26T00:57:03.894Z,30.50
2023-01-26T00:59:32.157Z,31.10
2023-01-26T01:02:02.261Z,31.30
2023-01-26T01:04:30.262Z,31.70
2023-01-26T01:06:58.475Z,31.10
2023-01-26T01:09:26.239Z,30.20
2023-01-26T01:11:53.801Z,32.10
2023-01-26T01:14:20.794Z,29.80
2023-01-26T01:16:48.507Z,32.60
2023-01-26T01:19:16.988Z,29.80
2023-01-26T01:21:45.164Z,33.30
2023-01-26T01:24:12.205Z,34.50
2023-01-26T01:26:39.212Z,44.60
2023-01-26T01:29:07.501Z,47.10
2023-01-26T01:31:35.051Z,49.10
2023-01-26T01:34:02.048Z,52.50
2023-01-26T01:36:31.034Z,52.40
2023-01-26T01:38:59.405Z,58.00
2023-01-26T01:41:27.245Z,60.40
2023-01-26T01:44:20.845Z,57.80
2023-01-26T01:46:54.704Z,58.30
2023-01-26T01:49:29.187Z,62.60
2023-01-26T01:52:11.955Z,61.40
2023-01-26T01:55:09.557Z,67.40
2023-01-26T01:57:46.634Z,67.30
2023-01-26T02:00:19.153Z,85.70
2023-01-26T02:03:11.450Z,93.90
2023-01-26T02:05:49.449Z,85.20
2023-01-26T02:08:19.062Z,70.20
2023-01-26T02:10:48.339Z,73.90
2023-01-26T02:13:18.791Z,77.90
2023-01-26T02:15:47.875Z,79.60
2023-01-26T02:18:15.878Z,62.40
2023-01-26T02:20:45.723Z,67.40
2023-01-26T02:23:38.968Z,69.50
2023-01-26T02:26:20.196Z,68.60
2023-01-26T02:28:50.010Z,74.30
2023-01-26T02:31:17.940Z,77.30
2023-01-26T02:33:45.945Z,71.30
2023-01-26T02:36:22.826Z,70.00
2023-01-26T02:39:19.566Z,75.60
2023-01-26T02:42:05.761Z,71.00
2023-01-26T02:44:33.530Z,74.70
2023-01-26T02:47:00.990Z,71.40
2023-01-26T02:49:47.609Z,72.90
2023-01-26T02:52:21.925Z,73.70
2023-01-26T02:55:14.072Z,70.30
2023-01-26T02:57:42.520Z,60.70
2023-01-26T03:00:18.121Z,50.80
2023-01-26T03:02:46.347Z,52.60
2023-01-26T03:05:14.663Z,56.30
2023-01-26T03:07:43.627Z,57.20
2023-01-26T03:10:12.527Z,59.40
2023-01-26T03:12:40.930Z,54.10
2023-01-26T03:15:28.115Z,58.20
2023-01-26T03:18:35.308Z,59.80
2023-01-26T03:21:24.969Z,62.00
2023-01-26T03:24:11.431Z,65.00
2023-01-26T03:26:58.277Z,64.60
2023-01-26T03:29:26.963Z,69.70
2023-01-26T03:31:58.516Z,64.40
2023-01-26T03:34:26.895Z,60.10
2023-01-26T03:36:54.353Z,60.60
2023-01-26T03:39:40.695Z,63.00
2023-01-26T03:42:27.258Z,56.20
2023-01-26T03:45:13.559Z,56.60
2023-01-26T03:48:02.646Z,60.10
2023-01-26T03:50:49.543Z,58.80
2023-01-26T03:53:41.056Z,63.60
2023-01-26T03:56:21.868Z,66.90
2023-01-26T03:58:55.326Z,64.70
2023-01-26T04:01:28.366Z,60.90
2023-01-26T04:04:17.891Z,56.30
2023-01-26T04:07:06.946Z,58.00
2023-01-26T09:30:18.580Z,53.00
2023-01-26T09:32:47.583Z,50.50
2023-01-26T09:35:17.159Z,46.90
2023-01-26T09:37:46.116Z,49.00
2023-01-26T09:40:20.458Z,45.40
2023-01-26T09:43:12.915Z,43.30
2023-01-26T09:45:47.125Z,42.60
2023-01-26T09:48:34.432Z,40.60
2023-01-26T09:51:15.098Z,34.90
2023-01-26T09:53:47.584Z,34.90
2023-01-26T09:56:20.590Z,31.60
2023-01-26T09:59:00.544Z,28.30
2023-01-26T10:01:51.543Z,33.80
2023-01-26T10:04:36.963Z,32.80
2023-01-26T10:07:09.901Z,31.30
2023-01-26T10:09:50.350Z,38.10
2023-01-26T10:12:36.607Z,29.80
2023-01-26T10:15:18.925Z,32.60
2023-01-26T10:17:48.662Z,31.80
2023-01-26T10:20:40.667Z,31.10
2023-01-26T10:23:31.375Z,42.60
2023-01-26T10:26:14.730Z,34.50
2023-01-26T10:28:44.545Z,32.10
2023-01-26T10:31:24.224Z,35.20
2023-01-26T10:34:02.509Z,35.30
2023-01-26T10:36:32.514Z,41.20
2023-01-26T10:39:08.950Z,37.00
2023-01-26T10:41:37.741Z,37.50
2023-01-26T10:44:16.044Z,54.10
2023-01-26T10:46:47.113Z,56.60
2023-01-26T10:49:16.496Z,79.90
2023-01-26T10:52:06.702Z,73.90
2023-01-26T10:54:37.282Z,78.30
2023-01-26T10:57:23.870Z,72.20
2023-01-26T10:59:56.220Z,77.10
2023-01-26T11:02:28.954Z,75.30
2023-01-26T11:05:07.110Z,67.90
2023-01-26T11:07:40.584Z,71.60
2023-01-26T11:10:29.749Z,76.20
2023-01-26T11:13:19.596Z,76.60
2023-01-26T11:15:50.181Z,64.20
2023-01-26T11:18:21.801Z,61.60
2023-01-26T11:21:28.282Z,66.30
2023-01-26T11:24:34.049Z,62.30
2023-01-26T11:27:18.459Z,61.50
2023-01-26T11:30:21.780Z,56.70
2023-01-26T11:33:02.139Z,52.00
2023-01-26T11:36:03.188Z,46.70
2023-01-26T11:38:39.450Z,44.70
2023-01-26T11:41:31.220Z,41.30
2023-01-26T11:47:05.936Z,44.30
2023-01-26T11:49:55.103Z,49.70
2023-01-26T11:52:31.154Z,45.20
2023-01-26T11:55:24.923Z,48.00
2023-01-26T11:58:59.754Z,47.50
2023-01-26T12:01:43.935Z,53.70
2023-01-26T12:04:19.313Z,54.20
2023-01-26T12:06:53.972Z,55.40
2023-01-26T12:09:37.077Z,54.30
2023-01-26T12:12:12.460Z,57.30
2023-01-26T12:14:58.320Z,54.20
2023-01-26T12:17:40.634Z,53.90
2023-01-26T12:20:26.414Z,53.00
2023-01-26T12:23:05.644Z,49.50
2023-01-26T12:25:38.573Z,50.30
2023-01-26T12:28:16.758Z,57.90
2023-01-26T12:30:45.305Z,54.90
2023-01-26T12:33:14.004Z,52.70
2023-01-26T12:36:12.286Z,50.40
2023-01-26T12:38:46.892Z,45.30
2023-01-26T12:41:45.392Z,47.70
2023-01-26T12:44:32.365Z,40.70
2023-01-26T12:47:14.418Z,36.90
2023-01-26T12:50:12.900Z,35.40
2023-01-26T12:52:43.958Z,37.80
2023-01-26T12:55:20.507Z,37.80
2023-01-26T12:57:50.977Z,34.50
2023-01-26T13:00:31.594Z,36.10
2023-01-26T13:03:21.375Z,38.10
2023-01-26T13:06:09.225Z,34.90
2023-01-26T13:08:38.726Z,32.00
2023-01-26T13:11:08.957Z,31.50
2023-01-26T13:13:54.108Z,31.60
2023-01-26T13:16:23.702Z,31.00
2023-01-26T13:18:53.733Z,29.40
2023-01-26T13:21:40.846Z,31.30
2023-01-26T13:24:18.646Z,30.70
2023-01-26T13:26:48.766Z,30.10
2023-01-26T13:29:32.198Z,31.30
2023-01-26T13:32:10.040Z,32.40
2023-01-26T13:34:43.421Z,30.60
2023-01-26T13:37:19.963Z,33.40
2023-01-26T13:39:52.760Z,33.30
2023-01-26T13:42:48.655Z,34.80
2023-01-26T13:45:26.189Z,36.80
2023-01-26T13:47:55.055Z,35.00
2023-01-26T13:50:30.405Z,37.50
2023-01-26T13:53:00.071Z,36.30
2023-01-26T13:55:32.363Z,35.30
2023-01-26T13:58:12.317Z,31.80
2023-01-26T14:00:41.110Z,32.70
2023-01-26T14:03:24.944Z,31.10
2023-01-26T14:06:11.438Z,32.60
2023-01-26T14:08:40.597Z,32.00
2023-01-26T14:11:28.409Z,29.20
2023-01-26T14:13:59.094Z,27.80
2023-01-26T14:16:35.339Z,27.70
2023-01-26T14:19:17.784Z,24.30
2023-01-26T14:22:03.778Z,24.00
2023-01-26T14:24:35.136Z,22.60
2023-01-26T14:27:04.425Z,27.90
2023-01-26T14:29:38.472Z,28.10
2023-01-26T14:32:14.888Z,32.10
2023-01-26T14:34:54.439Z,29.00
2023-01-26T14:37:24.808Z,26.50
2023-01-26T14:40:19.773Z,26.80
2023-01-26T14:42:49.997Z,27.70
2023-01-26T14:45:18.997Z,28.50
2023-01-26T14:47:47.872Z,30.30
2023-01-26T14:50:30.079Z,29.10
2023-01-26T14:52:59.999Z,27.10
2023-01-26T14:55:33.699Z,26.20
2023-01-26T14:58:02.674Z,27.70
2023-01-26T15:00:36.201Z,25.00
2023-01-26T15:03:07.876Z,26.80
2023-01-26T15:08:21.290Z,28.20
2023-01-26T15:11:19.581Z,35.70
2023-01-26T15:13:53.905Z,33.80
2023-01-26T15:16:24.253Z,41.70
2023-01-26T15:19:00.042Z,38.30
2023-01-26T15:21:34.222Z,39.30
2023-01-26T15:24:03.491Z,55.00
2023-01-26T15:26:33.795Z,36.70
2023-01-26T15:29:05.096Z,34.20
2023-01-26T15:34:07.206Z,32.70
2023-01-26T15:36:47.946Z,30.40
2023-01-26T15:39:19.394Z,33.90
2023-01-26T15:42:13.840Z,50.40
2023-01-26T15:44:43.084Z,68.30
2023-01-26T15:47:15.402Z,58.60
2023-01-26T15:49:45.804Z,40.50
2023-01-26T15:52:16.744Z,42.40
2023-01-26T15:54:45.755Z,36.10
2023-01-26T15:57:14.869Z,31.00
2023-01-26T15:59:44.870Z,37.60
2023-01-26T16:02:18.700Z,30.30
2023-01-26T16:04:48.397Z,41.20
2023-01-26T16:07:38.088Z,34.20
2023-01-26T16:10:09.116Z,40.10
2023-01-26T16:12:42.017Z,45.20
2023-01-26T16:15:23.231Z,33.20
2023-01-26T16:17:52.668Z,25.70
2023-01-26T16:20:22.783Z,28.10
2023-01-26T16:22:51.987Z,31.30
2023-01-26T16:25:26.548Z,34.50
2023-01-26T16:27:55.802Z,33.20
2023-01-26T16:30:25.310Z,35.90
2023-01-26T16:32:54.302Z,30.40
2023-01-26T16:35:24.279Z,31.80
2023-01-26T16:37:53.227Z,32.90
2023-01-26T16:40:22.422Z,29.20
2023-01-26T16:42:52.730Z,28.60
2023-01-26T16:45:24.999Z,28.50
2023-01-26T16:50:26.303Z,27.20
2023-01-26T16:52:55.667Z,29.30
2023-01-26T16:55:24.555Z,31.90
2023-01-26T16:57:53.849Z,29.80
2023-01-26T17:00:25.005Z,35.00
2023-01-26T17:02:53.687Z,31.30
2023-01-26T17:05:23.703Z,27.90
2023-01-26T17:07:52.999Z,28.60
2023-01-26T17:10:24.444Z,26.00
2023-01-26T17:12:53.438Z,26.40
2023-01-26T17:15:24.714Z,31.50
2023-01-26T17:17:53.721Z,33.30
2023-01-26T17:20:23.800Z,29.90
2023-01-26T17:22:52.992Z,32.60
2023-01-26T17:25:22.505Z,30.00
2023-01-26T17:27:51.599Z,32.30
2023-01-26T17:30:21.472Z,44.60
2023-01-26T17:32:50.723Z,54.60
2023-01-26T17:35:19.921Z,72.50
2023-01-26T17:37:49.205Z,71.30
2023-01-26T17:40:20.252Z,82.60
2023-01-26T17:42:49.256Z,48.10
2023-01-26T17:45:18.746Z,46.70
2023-01-26T17:47:47.842Z,42.60
2023-01-26T17:50:17.036Z,38.60
2023-01-26T17:52:46.043Z,36.50
2023-01-26T17:55:15.226Z,31.50
2023-01-26T17:57:44.432Z,37.30
2023-01-26T18:00:14.022Z,36.70
2023-01-26T18:02:44.349Z,48.80
2023-01-26T18:05:14.286Z,37.70
2023-01-26T18:07:43.766Z,43.10
2023-01-26T18:10:13.605Z,35.40
2023-01-26T18:12:45.777Z,30.70
2023-01-26T18:15:15.153Z,31.60
2023-01-26T18:17:44.345Z,26.80
2023-01-26T18:20:15.492Z,28.90
2023-01-26T18:22:44.586Z,23.80
2023-01-26T18:25:13.619Z,27.70
2023-01-26T18:27:43.709Z,27.30
2023-01-26T18:30:13.315Z,30.10
2023-01-26T18:32:42.295Z,55.70
2023-01-26T18:35:11.884Z,62.10
2023-01-26T18:37:41.286Z,60.40
2023-01-26T18:40:13.227Z,48.70
2023-01-26T18:42:42.463Z,46.70
2023-01-26T18:45:11.996Z,32.70
2023-01-26T18:47:41.699Z,29.50
2023-01-26T18:50:12.015Z,29.70
2023-01-26T18:52:41.026Z,32.60
2023-01-26T18:55:10.873Z,28.40
2023-01-26T19:00:11.923Z,26.90
2023-01-26T19:02:41.399Z,37.50
2023-01-26T19:05:10.850Z,36.90
2023-01-26T19:07:41.711Z,39.80
2023-01-26T19:10:11.215Z,49.60
2023-01-26T19:12:41.545Z,60.10
2023-01-26T19:15:11.129Z,59.10
2023-01-26T19:17:45.168Z,48.90
2023-01-26T19:20:14.356Z,37.70
2023-01-26T19:22:43.973Z,34.20
2023-01-26T19:25:13.786Z,34.30
2023-01-26T19:27:43.278Z,31.90
2023-01-26T19:30:13.197Z,30.70
2023-01-26T19:33:01.061Z,30.90
2023-01-26T19:35:30.756Z,28.90
2023-01-26T19:38:00.051Z,30.70
2023-01-26T19:40:29.236Z,29.80
2023-01-26T19:42:58.292Z,32.40
2023-01-26T19:45:27.642Z,37.90
2023-01-26T19:47:56.839Z,37.60
2023-01-26T19:50:26.026Z,36.00
2023-01-26T19:52:55.121Z,39.90
2023-01-26T19:55:24.466Z,43.60
2023-01-26T19:57:53.715Z,40.90
2023-01-26T20:00:22.791Z,37.30
2023-01-26T20:02:52.007Z,40.50
2023-01-26T20:05:21.409Z,38.30
2023-01-26T20:07:50.403Z,44.20
2023-01-26T20:10:20.219Z,48.00
2023-01-26T20:12:50.850Z,45.50
2023-01-26T20:15:20.663Z,44.90
2023-01-26T20:17:49.786Z,39.80
2023-01-26T20:20:19.256Z,35.90
2023-01-26T20:22:48.598Z,38.80
2023-01-26T20:25:20.522Z,38.60
2023-01-26T20:27:50.435Z,39.90
2023-01-26T20:30:20.059Z,40.60
2023-01-26T20:32:53.025Z,33.50
2023-01-26T20:35:22.245Z,37.80
2023-01-26T20:37:52.453Z,34.70
2023-01-26T20:40:22.163Z,37.00
2023-01-26T20:42:53.510Z,35.70
2023-01-26T20:45:24.452Z,35.30
2023-01-26T20:47:53.470Z,36.60
2023-01-26T20:50:23.246Z,37.50
2023-01-26T20:52:52.048Z,35.70
2023-01-26T20:55:21.476Z,40.30
2023-01-26T20:57:53.807Z,39.20
2023-01-26T21:00:23.829Z,40.70
2023-01-26T21:02:55.297Z,42.40
2023-01-26T21:05:26.326Z,39.30
2023-01-26T21:07:56.649Z,45.40
2023-01-26T21:10:26.057Z,47.50
2023-01-26T21:12:55.241Z,51.10
2023-01-26T21:15:24.334Z,51.10
2023-01-26T21:17:53.528Z,55.50
2023-01-26T21:20:22.461Z,40.40
2023-01-26T21:22:51.724Z,37.00
2023-01-26T21:25:20.584Z,35.80
2023-01-26T21:28:09.269Z,40.80
2023-01-26T21:30:39.306Z,40.60
2023-01-26T21:33:08.477Z,47.00
2023-01-26T21:35:39.422Z,49.10
2023-01-26T21:38:08.939Z,54.50
2023-01-26T21:40:38.220Z,51.70
2023-01-26T21:43:07.249Z,53.20
2023-01-26T21:45:54.657Z,49.40
2023-01-26T21:48:36.174Z,45.00
2023-01-26T21:51:24.275Z,39.50
2023-01-26T21:53:53.567Z,38.20
2023-01-26T21:56:22.559Z,37.90
2023-01-26T21:58:54.625Z,33.30
2023-01-26T22:01:24.885Z,31.10
2023-01-26T22:03:57.683Z,29.20
2023-01-26T22:06:26.722Z,29.50
2023-01-26T22:08:56.433Z,30.90
2023-01-26T22:11:26.245Z,32.90
2023-01-26T22:13:55.144Z,38.90
2023-01-26T22:16:26.022Z,39.00
2023-01-26T22:18:55.178Z,44.80
2023-01-26T22:21:25.390Z,37.90
